Time;durP1;ratioP1;P1;durP2;ratioP2;P2;SDS_P1;SDS_P2;PMS_P1;PMS_P2;Temp;Humidity;BMP_temperature;BMP_pressure;BME280_temperature;BME280_humidity;BME280_pressure;Samples;Min_cycle;Max_cycle;Signal;HPM_P1;HPM_P2
2024/02/02 00:00:40;;;;;;;4.10;0.73;;;7.20;99.90;;;;;;4984347;28;20658;-88
2024/02/02 00:03:08;;;;;;;5.03;1.50;;;7.20;99.90;;;;;;4954038;28;20719;-89
2024/02/02 00:05:34;;;;;;;0.87;0.63;;;7.20;99.90;;;;;;4992036;28;20219;-88
2024/02/02 00:08:01;;;;;;;0.83;0.60;;;6.90;99.90;;;;;;4976077;28;20222;-87
2024/02/02 00:10:27;;;;;;;0.70;0.47;;;7.10;99.90;;;;;;4977938;28;20227;-88
2024/02/02 00:12:53;;;;;;;8.13;1.13;;;7.30;99.90;;;;;;4977254;28;20216;-88
2024/02/02 00:15:19;;;;;;;0.60;0.53;;;7.30;99.90;;;;;;4988707;28;20537;-88
2024/02/02 00:17:44;;;;;;;0.70;0.70;;;7.10;99.90;;;;;;4977035;28;20207;-89
2024/02/02 00:20:11;;;;;;;0.37;0.37;;;7.30;99.90;;;;;;4977086;28;20208;-88
2024/02/02 00:22:37;;;;;;;3.13;0.43;;;7.30;99.90;;;;;;4977355;28;20222;-87
2024/02/02 00:25:03;;;;;;;4.90;1.03;;;7.10;99.90;;;;;;5004720;28;20217;-89
2024/02/02 00:27:29;;;;;;;0.50;0.50;;;7.40;99.90;;;;;;4976781;28;20195;-88
2024/02/02 00:29:54;;;;;;;0.43;0.43;;;7.30;99.90;;;;;;4977617;28;20191;-88
2024/02/02 00:32:20;;;;;;;3.50;1.17;;;7.20;99.90;;;;;;4978345;28;20208;-87
2024/02/02 00:34:46;;;;;;;0.40;0.40;;;7.50;99.90;;;;;;4978721;28;20284;-88
2024/02/02 00:37:12;;;;;;;1.57;0.90;;;7.50;99.90;;;;;;4976411;28;20218;-88
2024/02/02 00:39:38;;;;;;;0.30;0.30;;;7.40;99.90;;;;;;4974341;28;20217;-88
2024/02/02 00:42:04;;;;;;;3.47;0.77;;;7.30;99.90;;;;;;4990744;28;20274;-89
2024/02/02 00:44:30;;;;;;;0.30;0.30;;;7.30;99.90;;;;;;4975705;28;20223;-88
2024/02/02 00:46:56;;;;;;;0.73;0.70;;;7.30;99.90;;;;;;4986266;28;20234;-88
2024/02/02 00:49:23;;;;;;;2.20;1.13;;;7.30;99.90;;;;;;4978866;28;20223;-88
2024/02/02 00:51:50;;;;;;;0.43;0.43;;;7.30;99.90;;;;;;4995225;28;20266;-88
2024/02/02 00:54:16;;;;;;;3.90;0.70;;;7.50;99.90;;;;;;4987688;28;20220;-88
2024/02/02 00:56:41;;;;;;;0.80;0.60;;;7.50;99.90;;;;;;4975805;28;20294;-88
2024/02/02 00:59:07;;;;;;;5.00;0.80;;;7.40;99.90;;;;;;4978352;28;20211;-88
2024/02/02 01:01:33;;;;;;;0.40;0.40;;;7.50;99.90;;;;;;4975915;28;20350;-87
2024/02/02 01:03:59;;;;;;;3.53;0.80;;;7.60;99.90;;;;;;4976463;28;20242;-87
2024/02/02 01:06:25;;;;;;;5.20;1.70;;;7.50;99.90;;;;;;4976693;28;20195;-89
2024/02/02 01:08:51;;;;;;;3.57;1.67;;;7.60;99.90;;;;;;4979319;28;20211;-87
2024/02/02 01:11:16;;;;;;;7.33;2.63;;;7.40;99.90;;;;;;4975516;28;20207;-88
2024/02/02 01:13:43;;;;;;;6.67;1.93;;;7.50;99.90;;;;;;4976421;28;20236;-88
2024/02/02 01:16:08;;;;;;;1.20;1.13;;;7.40;99.90;;;;;;4977549;28;20223;-88
2024/02/02 01:18:34;;;;;;;0.50;0.50;;;7.40;99.90;;;;;;4976857;28;20374;-88
2024/02/02 01:21:00;;;;;;;7.57;1.17;;;7.40;99.90;;;;;;4975776;28;20187;-88
2024/02/02 01:23:26;;;;;;;4.87;1.60;;;7.40;99.90;;;;;;4992927;28;20218;-87
2024/02/02 01:25:52;;;;;;;0.50;0.50;;;7.40;99.90;;;;;;4975382;28;20245;-89
2024/02/02 01:28:17;;;;;;;1.40;1.30;;;7.40;99.90;;;;;;4986418;28;20219;-88
2024/02/02 01:30:43;;;;;;;12.07;1.50;;;7.50;99.90;;;;;;4977433;28;20192;-88
2024/02/02 01:33:12;;;;;;;0.60;0.60;;;7.50;99.90;;;;;;4993320;28;20281;-88
2024/02/02 01:35:38;;;;;;;10.60;0.40;;;7.40;99.90;;;;;;5009823;28;20235;-87
2024/02/02 01:38:04;;;;;;;7.23;1.87;;;7.40;99.90;;;;;;4987106;28;20249;-87
2024/02/02 01:40:30;;;;;;;3.13;1.10;;;7.60;99.90;;;;;;4976165;28;20268;-88
2024/02/02 01:42:56;;;;;;;0.40;0.40;;;7.60;99.90;;;;;;4992530;28;20219;-87
2024/02/02 01:45:22;;;;;;;1.77;0.90;;;7.40;99.90;;;;;;4976715;28;20219;-87
2024/02/02 01:47:47;;;;;;;0.27;0.27;;;7.40;99.90;;;;;;4975110;28;20215;-87
2024/02/02 01:50:13;;;;;;;3.80;1.00;;;7.60;99.90;;;;;;4975673;28;20279;-88
2024/02/02 01:52:39;;;;;;;0.90;0.77;;;7.40;99.90;;;;;;4987216;28;20230;-89
2024/02/02 01:55:05;;;;;;;0.20;0.20;;;7.50;99.90;;;;;;4974840;28;20231;-87
2024/02/02 01:57:31;;;;;;;2.10;0.83;;;7.50;99.90;;;;;;4977477;28;20395;-88
2024/02/02 01:59:57;;;;;;;0.47;0.47;;;7.60;99.90;;;;;;4976210;28;20191;-87
2024/02/02 02:02:23;;;;;;;0.33;0.33;;;7.70;99.90;;;;;;4974602;28;20223;-87
2024/02/02 02:04:49;;;;;;;0.60;0.60;;;7.50;99.90;;;;;;4973492;28;20219;-88
2024/02/02 02:07:15;;;;;;;4.33;1.23;;;7.70;99.90;;;;;;4976184;28;20222;-87
2024/02/02 02:09:42;;;;;;;0.70;0.67;;;7.60;99.90;;;;;;4979942;28;20196;-88
2024/02/02 02:12:08;;;;;;;1.93;0.93;;;7.50;99.90;;;;;;5013213;28;20191;-89
2024/02/02 02:14:34;;;;;;;2.37;1.13;;;7.70;99.90;;;;;;4995639;28;20223;-88
2024/02/02 02:16:59;;;;;;;2.03;1.07;;;7.60;99.90;;;;;;4979968;28;20211;-88
2024/02/02 02:19:25;;;;;;;1.07;0.77;;;7.50;99.90;;;;;;4979431;28;20305;-89
2024/02/02 02:21:51;;;;;;;4.73;1.30;;;7.70;99.90;;;;;;4987438;28;20228;-88
2024/02/02 02:24:17;;;;;;;1.80;1.00;;;7.70;99.90;;;;;;4976809;28;20195;-89
2024/02/02 02:26:44;;;;;;;3.80;0.77;;;7.60;99.90;;;;;;4994736;28;20295;-88
2024/02/02 02:29:10;;;;;;;2.80;1.03;;;7.70;99.90;;;;;;4978666;28;20219;-89
2024/02/02 02:31:36;;;;;;;0.73;0.73;;;7.60;99.90;;;;;;4992882;28;20218;-88
2024/02/02 02:34:02;;;;;;;0.20;0.20;;;7.60;99.90;;;;;;4979282;28;20225;-88
2024/02/02 02:36:28;;;;;;;7.57;2.20;;;7.60;99.90;;;;;;4989507;28;20187;-89
2024/02/02 02:38:54;;;;;;;0.37;0.37;;;7.60;99.90;;;;;;4978999;28;20658;-88
2024/02/02 02:41:20;;;;;;;0.50;0.50;;;7.70;99.90;;;;;;4979501;28;20214;-89
2024/02/02 02:43:45;;;;;;;1.20;1.20;;;7.70;99.90;;;;;;4978480;28;20837;-90
2024/02/02 02:46:11;;;;;;;4.30;1.40;;;7.60;99.90;;;;;;4973790;28;20731;-88
2024/02/02 02:48:37;;;;;;;1.50;0.60;;;7.60;99.90;;;;;;4977875;28;20196;-90
2024/02/02 02:51:03;;;;;;;1.20;1.20;;;7.70;99.90;;;;;;4980687;28;20176;-89
2024/02/02 02:53:30;;;;;;;7.40;0.80;;;7.80;99.90;;;;;;4994105;28;20217;-89
2024/02/02 02:55:56;;;;;;;0.20;0.20;;;7.60;99.90;;;;;;4988886;28;20213;-89
2024/02/02 02:58:21;;;;;;;10.07;1.10;;;7.80;99.90;;;;;;4982352;28;20302;-88
2024/02/02 03:00:48;;;;;;;0.70;0.70;;;7.70;99.90;;;;;;4978412;28;20241;-89
2024/02/02 03:03:13;;;;;;;3.10;1.40;;;7.70;99.90;;;;;;4987752;28;21495;-88
2024/02/02 03:05:40;;;;;;;0.23;0.23;;;7.80;99.90;;;;;;4995063;28;20210;-88
2024/02/02 03:08:06;;;;;;;1.40;0.83;;;7.80;99.90;;;;;;4979145;28;20207;-89
2024/02/02 03:10:32;;;;;;;0.63;0.50;;;7.70;99.90;;;;;;4994846;28;20246;-90
2024/02/02 03:12:58;;;;;;;0.50;0.50;;;7.70;99.90;;;;;;4978786;28;20215;-87
2024/02/02 03:15:24;;;;;;;11.60;1.70;;;7.70;99.90;;;;;;4971330;28;20211;-88
2024/02/02 03:17:49;;;;;;;10.93;1.50;;;7.80;99.90;;;;;;4977353;28;20558;-88
2024/02/02 03:20:15;;;;;;;1.33;0.83;;;7.80;99.90;;;;;;4993674;28;20294;-90
2024/02/02 03:22:41;;;;;;;0.47;0.47;;;7.70;99.90;;;;;;4977705;28;20266;-88
2024/02/02 03:25:11;;;;;;;1.27;1.03;;;7.80;99.90;;;;;;4978372;28;20217;-91
2024/02/02 03:27:37;;;;;;;1.07;1.07;;;7.80;99.90;;;;;;4989518;28;20188;-88
2024/02/02 03:30:03;;;;;;;0.60;0.60;;;7.70;99.90;;;;;;4978663;28;20190;-89
2024/02/02 03:32:29;;;;;;;2.30;2.13;;;7.80;99.90;;;;;;4987328;28;20584;-89
2024/02/02 03:34:55;;;;;;;0.83;0.83;;;7.70;99.90;;;;;;4979047;28;20712;-89
2024/02/02 03:37:21;;;;;;;0.20;0.20;;;7.70;99.90;;;;;;4979801;28;20211;-89
2024/02/02 03:39:48;;;;;;;0.87;0.87;;;7.70;99.90;;;;;;4962444;28;20282;-89
2024/02/02 03:42:14;;;;;;;11.93;1.07;;;7.80;99.90;;;;;;4994923;28;20226;-88
2024/02/02 03:44:40;;;;;;;0.70;0.70;;;7.80;99.90;;;;;;4994345;28;20304;-89
2024/02/02 03:47:06;;;;;;;0.20;0.20;;;7.70;99.90;;;;;;4986772;28;20207;-88
2024/02/02 03:49:34;;;;;;;2.53;1.83;;;7.80;99.90;;;;;;4962620;28;20220;-89
2024/02/02 03:52:01;;;;;;;2.33;0.50;;;7.70;99.90;;;;;;4976651;28;20219;-88
2024/02/02 03:54:27;;;;;;;9.33;0.93;;;7.70;99.90;;;;;;5004124;28;20231;-88
2024/02/02 03:56:54;;;;;;;1.40;0.90;;;7.80;99.90;;;;;;4977986;28;20277;-89
2024/02/02 03:59:19;;;;;;;2.30;0.80;;;7.80;99.90;;;;;;4976908;28;20642;-88
2024/02/02 04:01:45;;;;;;;4.40;1.73;;;7.80;99.90;;;;;;4977224;28;20242;-89
2024/02/02 04:04:11;;;;;;;3.13;1.00;;;7.70;99.90;;;;;;4977819;28;20226;-89
2024/02/02 04:06:37;;;;;;;9.33;0.73;;;7.70;99.90;;;;;;4978713;28;20285;-88
2024/02/02 04:09:03;;;;;;;1.27;1.17;;;7.80;99.90;;;;;;4977764;28;20802;-89
2024/02/02 04:11:32;;;;;;;2.33;0.63;;;7.60;99.90;;;;;;4977764;28;20757;-88
2024/02/02 04:13:58;;;;;;;0.67;0.67;;;7.70;99.90;;;;;;4990619;28;20229;-88
2024/02/02 04:16:24;;;;;;;1.83;1.07;;;7.60;99.90;;;;;;4977108;28;20203;-88
2024/02/02 04:18:50;;;;;;;1.40;0.67;;;7.70;99.90;;;;;;4978059;28;20218;-89
2024/02/02 04:21:15;;;;;;;2.33;0.77;;;7.60;99.90;;;;;;4978207;28;20184;-88
2024/02/02 04:23:41;;;;;;;0.73;0.73;;;7.60;99.90;;;;;;4987423;28;20250;-89
2024/02/02 04:26:07;;;;;;;4.37;2.07;;;7.60;99.90;;;;;;4979045;28;20262;-88
2024/02/02 04:28:34;;;;;;;0.53;0.53;;;7.60;99.90;;;;;;4976857;28;20615;-88
2024/02/02 04:31:00;;;;;;;1.27;0.60;;;7.60;99.90;;;;;;4969109;28;20214;-89
2024/02/02 04:33:26;;;;;;;6.23;1.47;;;7.70;99.90;;;;;;4977298;28;20262;-88
2024/02/02 04:35:52;;;;;;;10.87;1.67;;;7.80;99.90;;;;;;4993227;28;20227;-88
2024/02/02 04:38:17;;;;;;;1.17;1.17;;;7.60;99.90;;;;;;4977040;28;20306;-89
2024/02/02 04:40:46;;;;;;;0.20;0.20;;;7.70;99.90;;;;;;4977249;28;20208;-88
2024/02/02 04:43:13;;;;;;;0.77;0.77;;;7.60;99.90;;;;;;4987863;28;20242;-89
2024/02/02 04:45:39;;;;;;;4.17;1.73;;;7.60;99.90;;;;;;4979913;28;20279;-87
2024/02/02 04:48:05;;;;;;;0.87;0.87;;;7.50;99.90;;;;;;4986103;28;20282;-88
2024/02/02 04:50:31;;;;;;;2.70;0.77;;;7.50;99.90;;;;;;4975717;28;20688;-88
2024/02/02 04:52:57;;;;;;;0.30;0.30;;;7.50;99.90;;;;;;4991733;28;20278;-88
2024/02/02 04:55:23;;;;;;;0.70;0.67;;;7.50;99.90;;;;;;4992821;28;20289;-88
2024/02/02 04:57:49;;;;;;;1.80;1.70;;;7.50;99.90;;;;;;4975496;28;20223;-88
2024/02/02 05:00:15;;;;;;;2.57;1.17;;;7.40;99.90;;;;;;4976887;28;20192;-89
2024/02/02 05:02:41;;;;;;;0.50;0.50;;;7.40;99.90;;;;;;4989150;28;20714;-89
2024/02/02 05:05:07;;;;;;;0.90;0.90;;;7.40;99.90;;;;;;4979695;28;20218;-89
2024/02/02 05:07:35;;;;;;;2.30;1.33;;;7.30;99.90;;;;;;4991659;28;20235;-88
2024/02/02 05:10:01;;;;;;;1.30;1.10;;;7.40;99.90;;;;;;4981733;28;20235;-88
2024/02/02 05:12:27;;;;;;;2.37;0.90;;;7.30;99.90;;;;;;4976252;28;20652;-89
2024/02/02 05:14:53;;;;;;;4.60;0.60;;;7.30;99.90;;;;;;4992662;28;20239;-88
2024/02/02 05:17:19;;;;;;;19.90;1.57;;;7.40;99.90;;;;;;4977040;28;20211;-88
2024/02/02 05:19:45;;;;;;;0.77;0.37;;;7.30;99.90;;;;;;4976587;28;20582;-89
2024/02/02 05:22:11;;;;;;;1.83;1.73;;;7.40;99.90;;;;;;4986945;28;20662;-89
2024/02/02 05:24:36;;;;;;;15.43;4.57;;;7.30;99.90;;;;;;4975949;28;20187;-89
2024/02/02 05:27:03;;;;;;;1.40;1.30;;;7.30;99.90;;;;;;4978479;28;20194;-88
2024/02/02 05:29:28;;;;;;;0.50;0.40;;;7.20;99.90;;;;;;4990406;28;20215;-88
2024/02/02 05:31:54;;;;;;;2.10;1.10;;;7.20;99.90;;;;;;4988320;28;20226;-89
2024/02/02 05:34:20;;;;;;;0.50;0.50;;;7.30;99.90;;;;;;4970668;28;20669;-88
2024/02/02 05:36:46;;;;;;;0.60;0.40;;;7.20;99.90;;;;;;4975857;28;20191;-88
2024/02/02 05:39:12;;;;;;;1.13;0.73;;;7.20;99.90;;;;;;4989679;28;20199;-88
2024/02/02 05:41:37;;;;;;;7.00;3.20;;;7.20;99.90;;;;;;4975364;28;20567;-88
2024/02/02 05:44:04;;;;;;;1.07;0.90;;;7.20;99.90;;;;;;4977042;28;20226;-89
2024/02/02 05:46:29;;;;;;;3.30;1.47;;;7.20;99.90;;;;;;4974861;28;20553;-89
2024/02/02 05:48:55;;;;;;;2.97;0.70;;;7.20;99.90;;;;;;4978454;28;20222;-88
2024/02/02 05:51:21;;;;;;;2.10;1.90;;;7.10;99.90;;;;;;4993094;28;20190;-88
2024/02/02 05:53:47;;;;;;;0.37;0.37;;;7.10;99.90;;;;;;4975666;28;20227;-88
2024/02/02 05:56:12;;;;;;;5.77;1.67;;;7.20;99.90;;;;;;4974918;28;20218;-90
2024/02/02 05:58:38;;;;;;;5.97;2.47;;;7.20;99.90;;;;;;4974014;28;20725;-89
2024/02/02 06:01:07;;;;;;;1.47;1.33;;;7.00;99.90;;;;;;4992426;28;20642;-89
2024/02/02 06:03:33;;;;;;;0.97;0.87;;;7.20;99.90;;;;;;4975397;28;20546;-88
2024/02/02 06:05:59;;;;;;;2.77;2.43;;;6.90;99.90;;;;;;4977288;28;20217;-88
2024/02/02 06:08:24;;;;;;;2.23;1.43;;;6.90;99.90;;;;;;4976566;28;20234;-88
2024/02/02 06:10:50;;;;;;;4.10;1.07;;;7.00;99.90;;;;;;4976218;28;20306;-88
2024/02/02 06:13:19;;;;;;;8.10;1.57;;;6.90;99.90;;;;;;4976514;28;20210;-88
2024/02/02 06:15:46;;;;;;;0.80;0.80;;;6.90;99.90;;;;;;4976476;28;20215;-89
2024/02/02 06:18:11;;;;;;;0.50;0.50;;;7.00;99.90;;;;;;4978828;28;20191;-89
2024/02/02 06:20:37;;;;;;;0.40;0.40;;;6.90;99.90;;;;;;4990589;28;20662;-88
2024/02/02 06:23:03;;;;;;;0.77;0.67;;;6.90;99.90;;;;;;4975456;28;20323;-89
2024/02/02 06:25:29;;;;;;;3.10;0.67;;;6.70;99.90;;;;;;4974948;28;20218;-88
2024/02/02 06:27:55;;;;;;;0.73;0.73;;;6.80;99.90;;;;;;4974837;28;20219;-88
2024/02/02 06:30:23;;;;;;;0.40;0.40;;;6.80;99.90;;;;;;4976315;28;20219;-89
2024/02/02 06:32:49;;;;;;;2.83;1.50;;;6.90;99.90;;;;;;4978793;28;20235;-88
2024/02/02 06:35:21;;;;;;;0.83;0.83;;;6.80;99.90;;;;;;4975057;28;20301;-88
2024/02/02 06:37:46;;;;;;;2.47;0.60;;;6.80;99.90;;;;;;4974050;28;21043;-88
2024/02/02 06:40:12;;;;;;;2.00;1.47;;;6.90;99.90;;;;;;4975165;28;20258;-87
2024/02/02 06:42:38;;;;;;;0.83;0.83;;;6.70;99.90;;;;;;4986903;28;20187;-88
2024/02/02 06:45:04;;;;;;;4.07;1.50;;;6.80;99.90;;;;;;4987575;28;20239;-87
2024/02/02 06:47:30;;;;;;;2.80;1.27;;;6.80;99.90;;;;;;4990790;28;20216;-87
2024/02/02 06:49:56;;;;;;;6.27;1.50;;;6.80;99.90;;;;;;4984835;28;20714;-88
2024/02/02 06:52:22;;;;;;;0.33;0.33;;;6.90;99.90;;;;;;4975484;28;20293;-90
2024/02/02 06:54:48;;;;;;;0.50;0.50;;;6.90;99.90;;;;;;4975787;28;20265;-89
2024/02/02 06:57:14;;;;;;;1.73;1.00;;;6.90;99.90;;;;;;4977508;28;20326;-88
2024/02/02 06:59:43;;;;;;;0.53;0.53;;;6.80;99.90;;;;;;4979240;28;20215;-89
2024/02/02 07:02:20;;;;;;;1.93;0.67;;;6.80;99.90;;;;;;4995165;28;20692;-87
2024/02/02 07:04:50;;;;;;;9.57;1.33;;;6.90;99.90;;;;;;4995156;28;20199;-89
2024/02/02 07:07:16;;;;;;;0.80;0.80;;;6.80;99.90;;;;;;4995485;28;21747;-88
2024/02/02 07:10:01;;;;;;;0.73;0.73;;;6.90;99.90;;;;;;4988094;28;20723;-88
2024/02/02 07:13:01;;;;;;;0.57;0.57;;;7.10;99.90;;;;;;5012234;28;20178;-87
2024/02/02 07:15:31;;;;;;;1.23;1.13;;;6.90;99.90;;;;;;4988109;28;20227;-86
2024/02/02 07:17:58;;;;;;;1.33;1.30;;;7.10;99.90;;;;;;5007590;28;20180;-88
2024/02/02 07:20:28;;;;;;;0.77;0.77;;;7.00;99.90;;;;;;4978167;28;20226;-89
2024/02/02 07:22:59;;;;;;;1.33;1.23;;;7.10;99.90;;;;;;5010833;28;20751;-88
2024/02/02 07:25:26;;;;;;;0.80;0.80;;;6.90;99.90;;;;;;4993001;28;20707;-88
2024/02/02 07:27:58;;;;;;;1.20;1.20;;;7.00;99.90;;;;;;4978102;28;20234;-88
2024/02/02 07:30:47;;;;;;;2.83;0.80;;;7.10;99.90;;;;;;4995616;28;20271;-88
2024/02/02 07:33:36;;;;;;;0.73;0.73;;;6.90;99.90;;;;;;4996327;28;20265;-88
2024/02/02 07:36:03;;;;;;;0.50;0.50;;;7.00;99.90;;;;;;4992974;28;20220;-89
2024/02/02 07:38:29;;;;;;;0.83;0.83;;;7.20;99.90;;;;;;4993580;28;20212;-88
2024/02/02 07:41:05;;;;;;;0.87;0.73;;;7.10;99.90;;;;;;4995676;28;20779;-90
2024/02/02 07:43:33;;;;;;;7.07;1.03;;;7.20;99.90;;;;;;4989601;28;20765;-87
2024/02/02 07:46:05;;;;;;;0.53;0.53;;;7.20;99.90;;;;;;4977974;28;20224;-88
2024/02/02 07:48:32;;;;;;;14.67;1.27;;;7.40;99.90;;;;;;4994384;28;20546;-89
2024/02/02 07:50:58;;;;;;;1.07;1.03;;;7.50;99.90;;;;;;4994116;28;20179;-89
2024/02/02 07:53:24;;;;;;;6.63;1.17;;;7.60;99.90;;;;;;4977788;28;20226;-90
2024/02/02 07:55:50;;;;;;;3.30;1.47;;;7.70;99.90;;;;;;4993593;28;20219;-89
2024/02/02 07:58:17;;;;;;;1.23;0.87;;;7.80;99.90;;;;;;4993034;28;20264;-89
2024/02/02 08:00:43;;;;;;;7.83;2.20;;;7.80;99.90;;;;;;4985119;28;20636;-88
2024/02/02 08:03:09;;;;;;;1.50;1.40;;;7.70;99.90;;;;;;4979347;28;20274;-89
2024/02/02 08:05:38;;;;;;;2.43;0.73;;;7.70;99.90;;;;;;4977530;28;20675;-88
2024/02/02 08:08:04;;;;;;;0.87;0.70;;;7.50;99.90;;;;;;4979359;28;20219;-89
2024/02/02 08:10:30;;;;;;;1.70;1.30;;;7.60;99.90;;;;;;4973479;28;20211;-89
2024/02/02 08:12:56;;;;;;;0.90;0.90;;;7.50;99.90;;;;;;4976962;28;20207;-89
2024/02/02 08:15:23;;;;;;;6.13;1.97;;;7.60;99.90;;;;;;4976344;28;20552;-87
2024/02/02 08:17:50;;;;;;;13.97;1.43;;;7.50;99.90;;;;;;4978405;28;20234;-89
2024/02/02 08:20:16;;;;;;;3.37;1.87;;;7.50;99.90;;;;;;4967690;28;20216;-88
2024/02/02 08:22:46;;;;;;;4.13;1.23;;;7.60;99.90;;;;;;4959466;28;20220;-88
2024/02/02 08:25:13;;;;;;;3.37;1.40;;;7.50;99.90;;;;;;4957224;28;20485;-89
2024/02/02 08:27:39;;;;;;;13.43;1.87;;;7.70;99.90;;;;;;4957260;28;20276;-90
2024/02/02 08:30:07;;;;;;;3.03;1.23;;;7.60;99.90;;;;;;4958011;28;20195;-89
2024/02/02 08:32:34;;;;;;;1.53;0.83;;;7.60;99.90;;;;;;4957625;28;20224;-90
2024/02/02 08:35:01;;;;;;;1.43;1.33;;;7.80;99.90;;;;;;4957344;28;20239;-88
2024/02/02 08:37:26;;;;;;;1.50;1.40;;;7.70;99.90;;;;;;4958243;28;20220;-90
2024/02/02 08:39:53;;;;;;;2.20;1.03;;;7.80;99.90;;;;;;4975600;28;20239;-90
2024/02/02 08:42:22;;;;;;;1.10;1.10;;;7.70;99.90;;;;;;4967003;28;21157;-89
2024/02/02 08:44:52;;;;;;;18.60;1.43;;;7.80;99.90;;;;;;4965703;28;20231;-91
2024/02/02 08:47:19;;;;;;;5.90;1.83;;;7.70;99.90;;;;;;4950495;28;20590;-88
2024/02/02 08:49:59;;;;;;;2.93;0.67;;;7.80;99.90;;;;;;4964701;28;20751;-87
2024/02/02 08:52:33;;;;;;;2.73;2.50;;;7.80;99.90;;;;;;4956841;28;20222;-89
2024/02/02 08:55:03;;;;;;;2.97;0.60;;;7.90;99.90;;;;;;4993261;28;20580;-90
2024/02/02 08:57:44;;;;;;;8.60;1.13;;;7.90;99.90;;;;;;4962285;28;20192;-89
2024/02/02 09:00:30;;;;;;;6.03;1.13;;;7.90;99.90;;;;;;4998407;28;20176;-91
2024/02/02 09:03:07;;;;;;;3.10;0.47;;;8.00;99.90;;;;;;4993113;28;20208;-88
2024/02/02 09:05:54;;;;;;;1.80;1.10;;;8.00;99.90;;;;;;4989166;28;20218;-88
2024/02/02 09:08:33;;;;;;;3.50;2.47;;;8.00;99.90;;;;;;4992698;28;20219;-90
2024/02/02 09:10:58;;;;;;;10.50;1.70;;;8.10;99.90;;;;;;5009943;28;20800;-88
2024/02/02 09:13:30;;;;;;;2.73;1.13;;;8.10;99.90;;;;;;4993693;28;20223;-88
2024/02/02 09:15:56;;;;;;;2.73;1.23;;;8.20;99.90;;;;;;4993145;28;20215;-88
2024/02/02 09:18:36;;;;;;;0.90;0.90;;;8.20;99.90;;;;;;4977125;28;20231;-88
2024/02/02 09:21:03;;;;;;;8.33;1.73;;;8.30;99.90;;;;;;4993324;28;20217;-90
2024/02/02 09:23:32;;;;;;;2.70;1.90;;;8.20;99.90;;;;;;4976553;28;20688;-89
2024/02/02 09:25:59;;;;;;;0.40;0.40;;;8.30;99.90;;;;;;4994144;28;20212;-88
2024/02/02 09:28:25;;;;;;;0.60;0.47;;;8.30;99.90;;;;;;4986194;28;20217;-89
2024/02/02 09:31:00;;;;;;;0.40;0.40;;;8.30;99.90;;;;;;4993053;28;20298;-89
2024/02/02 09:33:35;;;;;;;0.20;0.20;;;8.40;99.90;;;;;;4992055;28;20688;-89
2024/02/02 09:36:05;;;;;;;3.63;1.97;;;8.40;99.90;;;;;;5008794;28;20671;-89
2024/02/02 09:38:32;;;;;;;1.43;1.33;;;8.50;99.90;;;;;;4986083;28;20208;-90
2024/02/02 09:41:00;;;;;;;2.10;0.83;;;8.60;99.90;;;;;;4975569;28;20331;-87
2024/02/02 09:43:45;;;;;;;2.60;2.50;;;8.80;99.90;;;;;;4993357;28;20211;-89
2024/02/02 09:46:43;;;;;;;0.83;0.80;;;8.80;99.90;;;;;;4993783;28;20234;-90
2024/02/02 09:49:26;;;;;;;19.93;1.97;;;8.80;99.90;;;;;;5009236;28;20248;-89
2024/02/02 09:52:16;;;;;;;1.03;1.03;;;9.10;99.90;;;;;;5002225;28;20215;-90
2024/02/02 09:55:00;;;;;;;0.80;0.80;;;9.00;99.90;;;;;;5001569;28;20246;-90
2024/02/02 09:57:38;;;;;;;14.73;1.60;;;9.00;99.90;;;;;;5002717;28;20191;-90
2024/02/02 10:00:15;;;;;;;1.43;0.83;;;9.00;99.90;;;;;;4992967;28;20208;-88
2024/02/02 10:02:47;;;;;;;3.10;1.80;;;9.00;99.90;;;;;;4993843;28;20742;-89
2024/02/02 10:05:32;;;;;;;0.57;0.53;;;9.00;99.90;;;;;;4991560;28;20274;-89
2024/02/02 10:08:09;;;;;;;10.23;1.13;;;9.10;99.90;;;;;;4980470;28;20208;-89
2024/02/02 10:11:03;;;;;;;0.90;0.90;;;8.90;99.90;;;;;;5001315;28;20234;-89
2024/02/02 10:14:13;;;;;;;3.70;2.30;;;9.00;99.90;;;;;;4990396;28;20215;-88
2024/02/02 10:16:55;;;;;;;1.47;0.77;;;9.00;99.90;;;;;;4947306;28;20626;-88
2024/02/02 10:19:36;;;;;;;4.83;3.27;;;9.10;99.90;;;;;;5011393;28;20222;-89
2024/02/02 10:22:43;;;;;;;1.67;1.23;;;9.00;99.90;;;;;;4988390;28;20207;-89
2024/02/02 10:25:34;;;;;;;1.10;1.10;;;9.00;99.90;;;;;;4972163;28;20215;-89
2024/02/02 10:28:30;;;;;;;2.90;0.80;;;9.10;99.90;;;;;;4985406;28;20216;-89
2024/02/02 10:31:16;;;;;;;9.73;1.67;;;9.00;99.90;;;;;;4995018;28;20683;-90
2024/02/02 10:33:52;;;;;;;1.70;0.70;;;9.10;99.90;;;;;;5012881;28;20262;-88
2024/02/02 10:36:27;;;;;;;6.70;1.10;;;9.20;99.90;;;;;;4999115;28;20198;-88
2024/02/02 10:39:08;;;;;;;7.37;3.23;;;9.20;99.90;;;;;;4997514;28;20226;-89
2024/02/02 10:41:42;;;;;;;1.27;1.17;;;9.30;99.90;;;;;;5001218;28;20216;-91
2024/02/02 10:44:36;;;;;;;4.03;1.90;;;9.30;99.90;;;;;;5007450;28;20253;-88
2024/02/02 10:47:21;;;;;;;2.77;0.77;;;9.30;99.90;;;;;;5013768;28;20262;-92
2024/02/02 10:49:59;;;;;;;3.53;2.20;;;9.20;99.90;;;;;;4996802;28;20223;-90
2024/02/02 10:52:51;;;;;;;1.50;0.73;;;9.30;99.90;;;;;;4998496;28;20211;-89
2024/02/02 10:55:38;;;;;;;1.13;1.13;;;9.30;99.90;;;;;;4975765;28;20226;-89
2024/02/02 10:58:16;;;;;;;0.70;0.70;;;9.40;99.90;;;;;;5006071;28;20226;-89
2024/02/02 11:01:11;;;;;;;1.93;1.67;;;9.40;99.90;;;;;;4997481;28;20187;-89
2024/02/02 11:03:43;;;;;;;2.40;1.17;;;9.40;99.90;;;;;;4976031;28;20676;-89
2024/02/02 11:06:27;;;;;;;0.63;0.63;;;9.40;99.90;;;;;;4998435;28;20206;-89
2024/02/02 11:09:06;;;;;;;3.83;1.83;;;9.50;99.90;;;;;;4996533;28;20301;-89
2024/02/02 11:11:40;;;;;;;22.23;2.83;;;9.50;99.90;;;;;;4997557;28;20591;-88
2024/02/02 11:14:36;;;;;;;1.47;0.67;;;9.60;99.90;;;;;;4995294;28;20301;-89
2024/02/02 11:17:23;;;;;;;1.40;1.07;;;9.50;99.90;;;;;;5001022;28;20223;-88
2024/02/02 11:19:57;;;;;;;0.50;0.43;;;9.70;99.90;;;;;;4995355;28;20215;-89
2024/02/02 11:22:47;;;;;;;1.37;1.37;;;9.70;99.90;;;;;;5003754;28;20632;-88
2024/02/02 11:25:40;;;;;;;18.23;1.63;;;9.70;99.90;;;;;;4990731;28;20555;-88
2024/02/02 11:28:23;;;;;;;1.23;1.23;;;9.80;99.90;;;;;;5004006;28;20266;-90
2024/02/02 11:31:12;;;;;;;0.40;0.40;;;9.80;99.90;;;;;;4993989;28;20215;-90
2024/02/02 11:33:47;;;;;;;3.93;2.03;;;9.80;99.90;;;;;;4985614;28;20184;-89
2024/02/02 11:36:34;;;;;;;0.50;0.50;;;9.90;99.90;;;;;;4997622;28;20297;-89
2024/02/02 11:39:09;;;;;;;0.83;0.60;;;9.90;99.90;;;;;;4985579;28;20698;-88
2024/02/02 11:41:37;;;;;;;1.17;0.60;;;9.80;99.90;;;;;;4995780;28;20210;-90
2024/02/02 11:44:04;;;;;;;2.63;1.30;;;9.70;99.90;;;;;;4995660;28;20693;-88
2024/02/02 11:46:35;;;;;;;1.53;1.10;;;9.70;99.90;;;;;;4996664;28;20222;-89
2024/02/02 11:49:16;;;;;;;2.07;1.63;;;9.70;99.90;;;;;;4996699;28;21626;-89
2024/02/02 11:51:48;;;;;;;1.60;1.50;;;9.50;99.90;;;;;;4978764;28;20187;-88
2024/02/02 11:54:30;;;;;;;2.23;1.07;;;9.50;99.90;;;;;;4993691;28;20196;-88
2024/02/02 11:57:03;;;;;;;0.97;0.73;;;9.60;99.90;;;;;;4995956;28;20579;-88
2024/02/02 11:59:35;;;;;;;2.53;2.33;;;9.50;99.90;;;;;;4994956;28;20238;-89
2024/02/02 12:02:16;;;;;;;7.93;2.27;;;9.60;99.90;;;;;;4995433;28;20219;-90
2024/02/02 12:04:58;;;;;;;3.03;1.00;;;9.60;99.90;;;;;;5003232;28;20679;-89
2024/02/02 12:07:42;;;;;;;2.20;2.03;;;9.60;99.90;;;;;;4995763;28;20301;-89
2024/02/02 12:10:14;;;;;;;1.07;0.73;;;9.60;99.90;;;;;;4993487;28;20215;-89
2024/02/02 12:12:49;;;;;;;5.83;1.63;;;9.60;99.90;;;;;;4993250;28;20584;-91
2024/02/02 12:15:15;;;;;;;0.40;0.40;;;9.70;99.90;;;;;;4994784;28;20736;-88
2024/02/02 12:17:44;;;;;;;2.57;1.43;;;9.60;99.90;;;;;;4977396;28;20219;-88
2024/02/02 12:20:11;;;;;;;1.27;1.17;;;9.70;99.90;;;;;;4977046;28;20227;-89
2024/02/02 12:22:37;;;;;;;0.83;0.47;;;9.60;99.90;;;;;;4993400;28;20222;-88
2024/02/02 12:25:04;;;;;;;1.60;0.90;;;9.50;99.90;;;;;;4992417;28;20613;-89
2024/02/02 12:27:34;;;;;;;3.90;2.43;;;9.50;99.90;;;;;;4977175;28;20690;-88
2024/02/02 12:30:01;;;;;;;1.73;1.33;;;9.70;99.90;;;;;;4986625;28;20274;-88
2024/02/02 12:32:27;;;;;;;1.37;1.27;;;9.70;99.90;;;;;;4984864;28;20211;-88
2024/02/02 12:34:53;;;;;;;3.90;1.40;;;9.60;99.90;;;;;;4975981;28;20361;-90
2024/02/02 12:37:18;;;;;;;4.33;1.20;;;9.80;99.90;;;;;;4979677;28;20302;-88
2024/02/02 12:39:45;;;;;;;0.93;0.70;;;9.70;99.90;;;;;;4976757;28;20190;-89
2024/02/02 12:42:11;;;;;;;2.10;1.77;;;9.80;99.90;;;;;;4978941;28;20573;-88
2024/02/02 12:44:38;;;;;;;1.00;0.57;;;9.80;99.90;;;;;;4977807;28;20730;-90
2024/02/02 12:47:07;;;;;;;15.70;1.03;;;9.70;99.90;;;;;;4988958;28;20218;-89
2024/02/02 12:49:33;;;;;;;0.60;0.60;;;9.70;99.90;;;;;;4977008;28;20223;-90
2024/02/02 12:52:00;;;;;;;7.43;1.53;;;9.60;99.90;;;;;;4992810;28;20226;-89
2024/02/02 12:54:26;;;;;;;2.53;1.13;;;9.80;99.90;;;;;;4977730;28;20226;-88
2024/02/02 12:56:52;;;;;;;7.10;2.00;;;9.70;99.90;;;;;;4992248;28;20219;-88
2024/02/02 12:59:18;;;;;;;1.07;0.90;;;9.70;99.90;;;;;;4977103;28;20602;-88
2024/02/02 13:01:50;;;;;;;2.90;1.53;;;9.70;99.90;;;;;;4993025;28;20211;-89
2024/02/02 13:04:17;;;;;;;2.97;1.63;;;9.70;99.90;;;;;;4992120;28;20226;-89
2024/02/02 13:06:44;;;;;;;1.63;1.50;;;9.70;99.90;;;;;;4976161;28;20568;-88
2024/02/02 13:09:18;;;;;;;2.37;1.53;;;9.70;99.90;;;;;;4976654;28;20188;-89